createdAt,value
2022-08-30T00:02:19.549Z,26.35
2022-08-30T00:04:46.747Z,26.26
2022-08-30T00:07:13.383Z,26.34
2022-08-30T00:09:40.051Z,26.32
2022-08-30T00:12:06.909Z,26.29
2022-08-30T00:14:33.568Z,26.40
2022-08-30T00:17:00.182Z,26.37
2022-08-30T00:19:26.930Z,26.25
2022-08-30T00:21:53.525Z,26.25
2022-08-30T00:24:20.195Z,26.22
2022-08-30T00:26:46.842Z,26.16
2022-08-30T00:29:14.070Z,26.35
2022-08-30T00:31:40.730Z,26.96
2022-08-30T00:34:07.704Z,26.86
2022-08-30T00:36:34.286Z,27.02
2022-08-30T00:39:00.906Z,27.11
2022-08-30T00:41:27.799Z,27.02
2022-08-30T00:43:54.466Z,27.12
2022-08-30T00:46:21.215Z,27.09
2022-08-30T00:48:49.843Z,26.91
2022-08-30T00:51:18.920Z,26.72
2022-08-30T00:53:50.932Z,26.69
2022-08-30T00:56:18.930Z,26.62
2022-08-30T00:58:50.816Z,26.63
2022-08-30T01:01:18.247Z,26.29
2022-08-30T01:03:46.358Z,26.43
2022-08-30T01:06:15.664Z,26.40
2022-08-30T01:08:43.310Z,26.47
2022-08-30T01:11:12.357Z,26.55
2022-08-30T01:13:39.272Z,26.22
2022-08-30T01:16:06.290Z,26.00
2022-08-30T01:18:33.991Z,25.87
2022-08-30T01:21:20.509Z,25.82
2022-08-30T01:23:50.275Z,25.76
2022-08-30T01:26:19.808Z,25.72
2022-08-30T01:28:52.259Z,25.55
2022-08-30T01:31:19.603Z,25.46
2022-08-30T01:33:46.270Z,25.59
2022-08-30T01:36:14.247Z,25.67
2022-08-30T01:38:56.876Z,25.56
2022-08-30T01:41:35.107Z,25.55
2022-08-30T01:44:05.657Z,25.49
2022-08-30T01:46:38.749Z,25.49
2022-08-30T01:49:08.467Z,25.49
2022-08-30T01:51:35.682Z,25.65
2022-08-30T01:54:02.279Z,25.65
2022-08-30T01:56:30.187Z,25.63
2022-08-30T01:59:02.337Z,25.59
2022-08-30T02:01:32.417Z,25.59
2022-08-30T02:04:00.079Z,25.55
2022-08-30T02:06:26.966Z,25.56
2022-08-30T02:08:53.629Z,25.52
2022-08-30T02:11:20.328Z,25.55
2022-08-30T02:13:47.275Z,25.56
2022-08-30T02:16:17.662Z,25.61
2022-08-30T02:18:45.830Z,25.64
2022-08-30T02:21:13.051Z,25.56
2022-08-30T02:23:40.144Z,25.44
2022-08-30T02:26:07.679Z,25.40
2022-08-30T02:28:34.699Z,25.35
2022-08-30T02:31:10.244Z,25.26
2022-08-30T02:33:37.998Z,25.42
2022-08-30T02:36:08.441Z,25.41
2022-08-30T02:38:35.625Z,25.41
2022-08-30T02:41:02.331Z,25.25
2022-08-30T02:43:28.986Z,25.32
2022-08-30T02:45:55.685Z,25.21
2022-08-30T02:48:22.312Z,25.23
2022-08-30T02:50:52.831Z,25.34
2022-08-30T02:53:21.179Z,25.37
2022-08-30T02:55:49.411Z,25.33
2022-08-30T02:58:16.251Z,25.81
2022-08-30T03:00:43.019Z,26.08
2022-08-30T03:03:09.969Z,26.45
2022-08-30T03:05:39.715Z,26.69
2022-08-30T03:08:07.119Z,26.38
2022-08-30T03:10:33.799Z,26.53
2022-08-30T03:13:00.672Z,26.42
2022-08-30T03:15:27.396Z,26.42
2022-08-30T03:17:55.208Z,25.82
2022-08-30T03:20:23.925Z,26.11
2022-08-30T03:22:51.483Z,25.98
2022-08-30T03:25:20.557Z,25.50
2022-08-30T03:27:47.768Z,25.77
2022-08-30T03:30:14.725Z,25.92
2022-08-30T03:32:41.687Z,25.82
2022-08-30T03:35:10.815Z,25.62
2022-08-30T03:37:37.780Z,26.34
2022-08-30T03:40:06.163Z,26.62
2022-08-30T03:42:33.376Z,25.85
2022-08-30T03:45:02.278Z,25.48
2022-08-30T03:47:29.439Z,25.29
2022-08-30T03:49:56.705Z,25.10
2022-08-30T03:52:23.643Z,25.10
2022-08-30T03:54:50.226Z,25.27
2022-08-30T03:57:22.292Z,25.19
2022-08-30T03:59:51.785Z,25.12
2022-08-30T04:02:18.658Z,25.05
2022-08-30T04:04:45.336Z,24.95
2022-08-30T04:07:12.010Z,25.42
2022-08-30T04:09:38.858Z,25.73
2022-08-30T04:12:05.628Z,26.00
2022-08-30T04:14:33.170Z,25.61
2022-08-30T04:16:59.863Z,25.66
2022-08-30T04:19:26.587Z,25.14
2022-08-30T04:21:53.262Z,25.37
2022-08-30T04:24:19.992Z,25.71
2022-08-30T04:26:46.649Z,25.17
2022-08-30T04:29:16.631Z,25.01
2022-08-30T04:31:44.193Z,25.07
2022-08-30T04:34:12.714Z,24.60
2022-08-30T04:36:39.787Z,24.80
2022-08-30T04:39:07.300Z,24.58
2022-08-30T04:41:36.042Z,24.46
2022-08-30T04:44:03.559Z,24.32
2022-08-30T04:46:30.640Z,24.41
2022-08-30T04:48:57.397Z,24.38
2022-08-30T04:51:24.018Z,24.30
2022-08-30T04:53:51.266Z,24.33
2022-08-30T04:56:22.486Z,24.20
2022-08-30T04:58:51.785Z,24.21
2022-08-30T05:01:24.996Z,24.01
2022-08-30T05:03:53.348Z,23.97
2022-08-30T05:06:21.032Z,23.98
2022-08-30T05:08:47.885Z,24.15
2022-08-30T05:11:16.964Z,24.17
2022-08-30T05:13:44.621Z,24.24
2022-08-30T05:16:17.612Z,24.42
2022-08-30T05:18:45.455Z,24.53
2022-08-30T05:21:23.343Z,24.30
2022-08-30T05:23:50.794Z,24.25
2022-08-30T05:26:21.488Z,24.30
2022-08-30T05:28:48.979Z,24.32
2022-08-30T05:31:21.922Z,24.48
2022-08-30T05:33:49.443Z,24.55
2022-08-30T05:36:17.683Z,24.48
2022-08-30T05:38:45.346Z,24.57
2022-08-30T05:41:12.212Z,24.91
2022-08-30T05:43:39.227Z,25.60
2022-08-30T05:46:11.577Z,26.20
2022-08-30T05:48:39.357Z,26.40
2022-08-30T05:51:09.230Z,26.42
2022-08-30T05:53:35.999Z,25.79
2022-08-30T05:56:05.411Z,25.46
2022-08-30T05:58:32.477Z,25.25
2022-08-30T06:00:59.900Z,25.11
2022-08-30T06:03:28.118Z,25.09
2022-08-30T06:05:54.945Z,25.19
2022-08-30T06:08:22.134Z,25.66
2022-08-30T06:10:48.918Z,25.48
2022-08-30T06:13:16.070Z,25.47
2022-08-30T06:15:47.273Z,25.34
2022-08-30T06:18:14.426Z,25.42
2022-08-30T06:20:50.177Z,25.48
2022-08-30T06:23:18.047Z,25.64
2022-08-30T06:25:45.119Z,25.56
2022-08-30T06:28:12.409Z,25.55
2022-08-30T06:30:41.669Z,25.46
2022-08-30T06:33:08.947Z,25.41
2022-08-30T06:35:46.684Z,25.61
2022-08-30T06:38:22.284Z,25.74
2022-08-30T06:40:50.975Z,25.83
2022-08-30T06:43:17.636Z,25.73
2022-08-30T06:45:44.285Z,25.65
2022-08-30T06:48:10.922Z,25.61
2022-08-30T06:50:37.527Z,25.63
2022-08-30T06:53:06.081Z,25.92
2022-08-30T06:55:35.964Z,25.98
2022-08-30T06:58:05.191Z,26.08
2022-08-30T07:00:31.856Z,26.01
2022-08-30T07:02:59.246Z,25.78
2022-08-30T07:05:25.967Z,25.77
2022-08-30T07:07:55.452Z,25.95
2022-08-30T07:10:23.371Z,25.89
2022-08-30T07:12:50.049Z,25.81
2022-08-30T07:15:20.509Z,25.88
2022-08-30T07:18:05.784Z,26.04
2022-08-30T07:20:40.125Z,26.17
2022-08-30T07:23:08.285Z,26.27
2022-08-30T07:25:39.630Z,26.19
2022-08-30T07:28:07.385Z,26.40
2022-08-30T07:30:35.227Z,26.66
2022-08-30T07:33:02.312Z,26.68
2022-08-30T07:35:29.006Z,26.90
2022-08-30T07:37:55.669Z,26.66
2022-08-30T07:40:22.503Z,26.62
2022-08-30T07:42:49.108Z,26.56
2022-08-30T07:45:15.707Z,26.75
2022-08-30T07:47:42.631Z,26.62
2022-08-30T07:50:09.292Z,26.60
2022-08-30T07:55:03.316Z,26.65
2022-08-30T07:57:34.314Z,26.78
2022-08-30T08:00:01.414Z,27.11
2022-08-30T08:02:28.357Z,26.90
2022-08-30T08:04:55.304Z,26.78
2022-08-30T08:07:21.989Z,26.89
2022-08-30T08:09:49.462Z,26.87
2022-08-30T08:12:16.166Z,27.13
2022-08-30T08:14:43.131Z,27.29
2022-08-30T08:17:10.048Z,27.48
2022-08-30T08:19:36.644Z,27.26
2022-08-30T08:22:19.917Z,27.39
2022-08-30T08:24:47.495Z,27.46
2022-08-30T08:27:14.088Z,27.42
2022-08-30T08:29:40.778Z,27.42
2022-08-30T08:32:07.413Z,27.38
2022-08-30T08:34:35.750Z,27.44
2022-08-30T08:37:02.678Z,27.61
2022-08-30T08:39:29.313Z,27.50
2022-08-30T08:42:14.230Z,27.42
2022-08-30T08:47:25.413Z,27.48
2022-08-30T08:49:58.584Z,27.52
2022-08-30T08:52:55.275Z,27.69
2022-08-30T08:55:24.493Z,27.76
2022-08-30T08:57:52.490Z,27.69
2022-08-30T09:00:19.903Z,27.71
2022-08-30T09:02:55.785Z,27.68
2022-08-30T09:05:27.801Z,27.80
2022-08-30T09:08:09.151Z,27.84
2022-08-30T09:10:49.852Z,27.90
2022-08-30T09:13:19.588Z,27.94
2022-08-30T09:15:54.350Z,28.01
2022-08-30T09:18:45.440Z,28.11
2022-08-30T09:21:14.153Z,28.25
2022-08-30T09:23:57.201Z,28.16
2022-08-30T09:26:36.252Z,28.17
2022-08-30T09:29:05.218Z,28.10
2022-08-30T09:31:57.984Z,28.20
2022-08-30T09:34:33.465Z,28.36
2022-08-30T09:37:00.387Z,28.34
2022-08-30T09:39:34.295Z,28.26
2022-08-30T09:42:29.338Z,28.27
2022-08-30T09:45:10.532Z,28.23
2022-08-30T09:47:43.516Z,28.27
2022-08-30T09:50:17.694Z,28.24
2022-08-30T09:52:56.494Z,28.28
2022-08-30T09:55:28.841Z,28.37
2022-08-30T09:58:17.709Z,28.33
2022-08-30T10:01:20.169Z,28.65
2022-08-30T10:04:05.294Z,28.93
2022-08-30T10:06:42.129Z,29.28
2022-08-30T10:09:23.215Z,29.69
2022-08-30T10:12:07.524Z,30.03
2022-08-30T10:14:51.870Z,30.39
2022-08-30T10:17:44.992Z,30.62
2022-08-30T10:20:19.702Z,30.72
2022-08-30T10:22:57.627Z,30.94
2022-08-30T10:25:37.109Z,31.17
2022-08-30T10:28:11.330Z,31.28
2022-08-30T10:30:40.770Z,31.41
2022-08-30T10:33:17.277Z,31.47
2022-08-30T10:35:48.637Z,31.30
2022-08-30T10:38:36.514Z,31.44
2022-08-30T10:41:28.287Z,31.55
2022-08-30T10:44:15.470Z,31.70
2022-08-30T10:47:07.318Z,31.84
2022-08-30T10:50:06.582Z,32.06
2022-08-30T10:52:47.682Z,32.21
2022-08-30T10:55:21.944Z,32.40
2022-08-30T10:57:49.577Z,32.42
2022-08-30T11:00:25.230Z,32.30
2022-08-30T11:03:16.774Z,32.27
2022-08-30T11:06:12.750Z,32.43
2022-08-30T11:08:51.503Z,32.56
2022-08-30T11:11:21.570Z,32.54
2022-08-30T11:13:49.479Z,32.42
2022-08-30T11:16:20.310Z,32.48
2022-08-30T11:18:57.268Z,32.52
2022-08-30T11:21:35.577Z,32.59
2022-08-30T11:24:13.421Z,32.50
2022-08-30T11:26:46.013Z,32.63
2022-08-30T11:29:44.410Z,32.89
2022-08-30T11:32:18.320Z,32.92
2022-08-30T11:34:44.944Z,32.83
2022-08-30T11:37:38.777Z,32.89
2022-08-30T11:40:53.207Z,33.03
2022-08-30T11:43:36.899Z,33.19
2022-08-30T11:46:28.447Z,33.41
2022-08-30T11:49:23.384Z,33.53
2022-08-30T11:55:02.456Z,33.97
2022-08-30T11:57:31.907Z,34.02
2022-08-30T12:00:10.316Z,34.25
2022-08-30T12:02:40.434Z,34.67
2022-08-30T12:05:07.923Z,35.10
2022-08-30T12:07:57.300Z,35.26
2022-08-30T12:10:38.652Z,35.08
2022-08-30T12:13:06.479Z,34.89
2022-08-30T12:15:53.983Z,34.49
2022-08-30T12:18:27.831Z,34.31
2022-08-30T12:21:12.263Z,34.26
2022-08-30T12:24:16.617Z,34.29
2022-08-30T12:26:46.001Z,34.23
2022-08-30T12:29:20.840Z,34.20
2022-08-30T12:32:03.445Z,34.06
2022-08-30T12:34:41.367Z,34.08
2022-08-30T12:37:19.754Z,34.01
2022-08-30T12:39:47.320Z,34.17
2022-08-30T12:42:30.639Z,34.16
2022-08-30T12:45:04.291Z,34.00
2022-08-30T12:47:48.608Z,33.91
2022-08-30T12:50:22.641Z,33.73
2022-08-30T12:53:13.111Z,33.60
2022-08-30T12:55:59.868Z,33.49
2022-08-30T12:58:39.244Z,33.27
2022-08-30T13:01:18.688Z,33.12
2022-08-30T13:04:13.568Z,33.11
2022-08-30T13:06:48.933Z,32.99
2022-08-30T13:09:44.137Z,32.97
2022-08-30T13:12:25.778Z,32.98
2022-08-30T13:14:53.749Z,32.85
2022-08-30T13:17:35.663Z,32.79
2022-08-30T13:20:05.769Z,32.64
2022-08-30T13:22:37.449Z,32.59
2022-08-30T13:25:04.760Z,32.53
2022-08-30T13:27:37.004Z,32.45
2022-08-30T13:30:14.642Z,32.34
2022-08-30T13:32:41.476Z,32.30
2022-08-30T13:35:08.886Z,32.27
2022-08-30T13:37:52.137Z,32.22
2022-08-30T13:40:21.973Z,32.19
2022-08-30T13:42:50.248Z,32.22
2022-08-30T13:48:06.872Z,32.15
2022-08-30T13:50:33.548Z,32.04
2022-08-30T13:53:00.424Z,32.00
2022-08-30T13:55:28.158Z,32.03
2022-08-30T13:57:56.670Z,31.94
2022-08-30T14:00:26.048Z,31.93
2022-08-30T14:02:57.245Z,31.88
2022-08-30T14:05:48.865Z,31.82
2022-08-30T14:08:49.293Z,31.82
2022-08-30T14:11:20.981Z,31.75
2022-08-30T14:16:38.080Z,31.67
2022-08-30T14:19:06.019Z,31.60
2022-08-30T14:21:35.288Z,31.51
2022-08-30T14:24:04.802Z,31.53
2022-08-30T14:26:39.498Z,31.47
2022-08-30T14:29:09.983Z,31.46
2022-08-30T14:31:39.252Z,31.45
2022-08-30T14:34:08.022Z,31.38
2022-08-30T14:36:36.259Z,31.36
2022-08-30T14:39:08.602Z,31.35
2022-08-30T14:41:39.031Z,31.27
2022-08-30T14:44:10.465Z,31.25
2022-08-30T14:46:37.455Z,31.22
2022-08-30T14:49:04.314Z,31.19
2022-08-30T14:51:32.906Z,31.19
2022-08-30T14:54:00.630Z,31.17
2022-08-30T14:56:27.298Z,31.13
2022-08-30T14:59:00.390Z,31.11
2022-08-30T15:01:28.341Z,31.09
2022-08-30T15:03:55.171Z,31.07
2022-08-30T15:06:22.361Z,31.08
2022-08-30T15:08:49.419Z,31.10
2022-08-30T15:29:38.849Z,31.24
2022-08-30T15:32:05.677Z,31.07
2022-08-30T15:34:32.656Z,30.96
2022-08-30T15:36:59.796Z,30.94
2022-08-30T15:39:26.763Z,30.89
2022-08-30T15:41:58.471Z,30.61
2022-08-30T15:44:27.721Z,29.93
2022-08-30T15:46:54.585Z,29.64
2022-08-30T15:49:24.020Z,29.39
2022-08-30T15:51:53.994Z,29.10
2022-08-30T15:54:23.369Z,28.79
2022-08-30T15:56:52.214Z,28.63
2022-08-30T15:59:19.348Z,28.34
2022-08-30T16:01:47.636Z,28.16
2022-08-30T16:04:14.954Z,27.75
2022-08-30T16:06:42.159Z,27.57
2022-08-30T16:09:10.671Z,27.40
2022-08-30T16:11:38.557Z,27.40
2022-08-30T16:14:05.848Z,27.16
2022-08-30T16:16:33.839Z,26.99
2022-08-30T16:19:01.754Z,26.80
2022-08-30T16:21:31.207Z,26.57
2022-08-30T16:24:01.253Z,26.71
2022-08-30T16:26:30.295Z,26.44
2022-08-30T16:28:58.174Z,26.34
2022-08-30T16:31:28.201Z,26.25
2022-08-30T16:34:02.225Z,26.28
2022-08-30T16:36:32.081Z,26.17
2022-08-30T16:39:00.061Z,26.07
2022-08-30T16:41:27.732Z,26.04
2022-08-30T16:43:55.663Z,25.98
2022-08-30T16:46:27.146Z,25.91
2022-08-30T16:48:57.611Z,25.83
2022-08-30T16:51:27.561Z,25.84
2022-08-30T16:53:59.579Z,25.93
2022-08-30T16:56:29.882Z,25.68
2022-08-30T16:59:01.979Z,25.70
2022-08-30T17:01:30.754Z,25.67
2022-08-30T17:04:00.503Z,25.58
2022-08-30T17:06:27.691Z,25.47
2022-08-30T17:08:55.999Z,25.50
2022-08-30T17:11:23.615Z,25.44
2022-08-30T17:13:52.629Z,25.46
2022-08-30T17:16:22.268Z,25.28
2022-08-30T17:18:54.678Z,25.43
2022-08-30T17:21:21.845Z,25.54
2022-08-30T17:23:50.619Z,25.54
2022-08-30T17:26:19.281Z,25.66
2022-08-30T17:28:46.500Z,25.66
2022-08-30T17:31:15.000Z,25.69
2022-08-30T17:33:45.475Z,25.59
2022-08-30T17:36:13.827Z,25.60
2022-08-30T17:38:44.893Z,25.61
2022-08-30T17:41:13.440Z,25.58
2022-08-30T17:43:40.307Z,25.46
2022-08-30T17:46:13.541Z,25.44
2022-08-30T17:48:40.992Z,25.40
2022-08-30T17:51:08.094Z,25.40
2022-08-30T17:53:35.527Z,25.37
2022-08-30T17:56:04.452Z,25.29
2022-08-30T17:58:32.354Z,25.43
2022-08-30T18:01:12.070Z,25.49
2022-08-30T18:03:40.046Z,25.48
2022-08-30T18:06:07.741Z,25.34
2022-08-30T18:08:36.988Z,25.27
2022-08-30T18:11:06.010Z,25.22
2022-08-30T18:13:34.166Z,25.33
2022-08-30T18:16:03.870Z,25.41
2022-08-30T18:21:21.993Z,25.32
2022-08-30T18:23:50.870Z,25.29
2022-08-30T18:26:18.202Z,25.25
2022-08-30T18:28:50.981Z,25.25
2022-08-30T18:31:18.316Z,25.28
2022-08-30T18:33:45.340Z,25.24
2022-08-30T18:36:12.596Z,25.03
2022-08-30T18:38:39.686Z,24.90
2022-08-30T18:41:09.452Z,24.80
2022-08-30T18:43:37.846Z,24.67
2022-08-30T18:46:09.484Z,24.60
2022-08-30T18:48:36.798Z,24.56
2022-08-30T18:51:04.520Z,24.63
2022-08-30T18:53:32.351Z,24.64
2022-08-30T18:55:59.949Z,24.65
2022-08-30T18:58:26.703Z,24.59
2022-08-30T19:00:56.675Z,24.53
2022-08-30T19:03:23.830Z,24.57
2022-08-30T19:05:50.967Z,24.55
2022-08-30T19:08:18.207Z,24.53
2022-08-30T19:10:45.690Z,24.60
2022-08-30T19:13:15.037Z,24.56
2022-08-30T19:15:42.501Z,24.56
2022-08-30T19:18:16.818Z,24.53
2022-08-30T19:20:45.546Z,24.53
2022-08-30T19:23:13.539Z,24.68
2022-08-30T19:25:42.172Z,24.64
2022-08-30T19:28:13.020Z,24.56
2022-08-30T19:30:41.538Z,24.51
2022-08-30T19:33:13.399Z,24.55
2022-08-30T19:35:50.962Z,24.59
2022-08-30T19:38:19.014Z,24.57
2022-08-30T19:40:51.125Z,24.53
2022-08-30T19:43:23.229Z,24.51
2022-08-30T19:45:58.671Z,24.50
2022-08-30T19:48:32.059Z,24.48
2022-08-30T19:51:01.439Z,24.57
2022-08-30T19:53:28.202Z,24.67
2022-08-30T19:55:55.172Z,24.56
2022-08-30T19:58:23.229Z,24.56
2022-08-30T20:00:56.096Z,24.51
2022-08-30T20:03:38.252Z,24.43
2022-08-30T20:06:08.146Z,24.46
2022-08-30T20:08:36.034Z,24.46
2022-08-30T20:11:03.410Z,24.53
2022-08-30T20:13:34.221Z,24.53
2022-08-30T20:16:02.578Z,24.54
2022-08-30T20:18:31.300Z,24.59
2022-08-30T20:20:58.261Z,24.67
2022-08-30T20:23:25.380Z,24.63
2022-08-30T20:24:27.929Z,25.38
2022-08-30T20:25:54.754Z,24.56
2022-08-30T20:28:22.252Z,24.64
2022-08-30T20:30:49.695Z,24.64
2022-08-30T20:33:17.689Z,24.55
2022-08-30T20:35:48.970Z,24.50
2022-08-30T20:38:21.385Z,24.54
2022-08-30T20:40:50.456Z,24.23
2022-08-30T20:43:24.257Z,24.42
2022-08-30T20:45:51.311Z,24.48
2022-08-30T20:48:19.595Z,24.58
2022-08-30T20:50:47.681Z,24.68
2022-08-30T20:53:14.463Z,24.57
2022-08-30T20:55:47.537Z,24.50
2022-08-30T20:58:15.224Z,24.61
2022-08-30T21:00:45.682Z,24.49
2022-08-30T21:03:27.298Z,24.46
2022-08-30T21:05:56.516Z,24.39
2022-08-30T21:08:23.252Z,24.54
2022-08-30T21:10:50.144Z,24.60
2022-08-30T21:13:18.925Z,24.68
2022-08-30T21:15:46.354Z,24.64
2022-08-30T21:18:14.829Z,24.53
2022-08-30T21:20:41.870Z,24.51
2022-08-30T21:23:09.361Z,24.47
2022-08-30T21:25:41.272Z,24.44
2022-08-30T21:28:10.047Z,24.39
2022-08-30T21:30:37.628Z,24.35
2022-08-30T21:33:07.189Z,24.30
2022-08-30T21:35:53.126Z,24.26
2022-08-30T21:38:20.218Z,24.22
2022-08-30T21:40:48.587Z,24.23
2022-08-30T21:43:16.107Z,24.22
2022-08-30T21:45:44.621Z,24.20
2022-08-30T21:48:13.276Z,24.18
2022-08-30T21:50:42.483Z,24.25
2022-08-30T21:53:10.821Z,24.31
2022-08-30T21:55:38.855Z,24.35
2022-08-30T21:58:07.664Z,24.24
2022-08-30T22:00:34.650Z,24.21
2022-08-30T22:03:01.467Z,24.21
2022-08-30T22:05:28.524Z,24.33
2022-08-30T22:07:55.394Z,24.24
2022-08-30T22:10:23.563Z,24.16
2022-08-30T22:12:51.430Z,24.25
2022-08-30T22:15:18.120Z,24.32
2022-08-30T22:17:46.327Z,24.32
2022-08-30T22:20:16.197Z,24.22
2022-08-30T22:22:45.668Z,24.17
2022-08-30T22:25:13.948Z,24.17
2022-08-30T22:27:40.745Z,24.19
2022-08-30T22:30:08.188Z,24.35
2022-08-30T22:32:38.793Z,24.47
2022-08-30T22:35:07.460Z,24.42
2022-08-30T22:37:34.837Z,24.25
2022-08-30T22:40:03.441Z,24.30
2022-08-30T22:42:30.592Z,24.41
2022-08-30T22:44:58.902Z,24.37
2022-08-30T22:47:25.687Z,24.35
2022-08-30T22:49:52.837Z,24.24
2022-08-30T22:52:24.220Z,24.20
2022-08-30T22:54:54.280Z,24.15
2022-08-30T22:57:22.218Z,24.26
2022-08-30T22:59:48.923Z,24.33
2022-08-30T23:02:16.001Z,24.27
2022-08-30T23:04:42.921Z,24.27
2022-08-30T23:07:09.521Z,24.24
2022-08-30T23:09:36.353Z,24.24
2022-08-30T23:12:06.299Z,24.24
2022-08-30T23:14:34.219Z,24.18
2022-08-30T23:17:01.076Z,24.13
2022-08-30T23:19:27.814Z,24.14
2022-08-30T23:21:54.545Z,24.15
2022-08-30T23:24:39.763Z,24.16
2022-08-30T23:27:25.020Z,24.07
2022-08-30T23:30:09.973Z,23.99
2022-08-30T23:32:55.255Z,23.91
2022-08-30T23:35:41.262Z,23.99
2022-08-30T23:38:26.167Z,23.83
2022-08-30T23:41:11.471Z,23.82
2022-08-30T23:43:56.975Z,23.79
2022-08-30T23:46:42.851Z,23.78
2022-08-30T23:49:28.119Z,23.87
2022-08-30T23:52:13.362Z,23.96
2022-08-30T23:54:58.468Z,23.94
2022-08-30T23:57:45.256Z,23.91
